sensor_id;sensor_type;location;lat;lon;timestamp;pressure;altitude;pressure_sealevel;temperature;humidity
10652;BME280;5374;42.742;23.266;2024-01-30T00:00:53;97415.50;;;0.59;72.27
10652;BME280;5374;42.742;23.266;2024-01-30T00:03:40;97456.06;;;0.83;72.17
10652;BME280;5374;42.742;23.266;2024-01-30T00:06:27;97459.25;;;0.77;72.17
10652;BME280;5374;42.742;23.266;2024-01-30T00:09:14;97455.66;;;0.78;72.31
10652;BME280;5374;42.742;23.266;2024-01-30T00:12:02;97454.97;;;0.76;73.11
10652;BME280;5374;42.742;23.266;2024-01-30T00:14:50;97445.19;;;0.68;73.11
10652;BME280;5374;42.742;23.266;2024-01-30T00:17:37;97456.91;;;0.74;73.44
10652;BME280;5374;42.742;23.266;2024-01-30T00:20:25;97466.38;;;0.75;73.36
10652;BME280;5374;42.742;23.266;2024-01-30T00:23:12;97467.78;;;0.79;73.32
10652;BME280;5374;42.742;23.266;2024-01-30T00:26:00;97454.84;;;0.77;72.77
10652;BME280;5374;42.742;23.266;2024-01-30T00:28:47;97467.22;;;0.85;72.45
10652;BME280;5374;42.742;23.266;2024-01-30T00:31:35;97466.41;;;0.84;72.68
10652;BME280;5374;42.742;23.266;2024-01-30T00:34:22;97447.13;;;0.76;72.76
10652;BME280;5374;42.742;23.266;2024-01-30T00:37:10;97460.06;;;0.87;72.97
10652;BME280;5374;42.742;23.266;2024-01-30T00:39:57;97458.81;;;0.91;72.82
10652;BME280;5374;42.742;23.266;2024-01-30T00:42:44;97457.84;;;0.92;72.42
10652;BME280;5374;42.742;23.266;2024-01-30T00:45:31;97467.47;;;0.91;72.43
10652;BME280;5374;42.742;23.266;2024-01-30T00:48:20;97459.09;;;0.88;72.63
10652;BME280;5374;42.742;23.266;2024-01-30T00:51:07;97443.69;;;0.85;72.54
10652;BME280;5374;42.742;23.266;2024-01-30T00:53:55;97466.66;;;0.91;72.73
10652;BME280;5374;42.742;23.266;2024-01-30T00:56:42;97465.03;;;0.90;73.02
10652;BME280;5374;42.742;23.266;2024-01-30T00:59:29;97462.97;;;0.84;73.42
10652;BME280;5374;42.742;23.266;2024-01-30T01:02:16;97440.53;;;0.72;73.01
10652;BME280;5374;42.742;23.266;2024-01-30T01:05:06;97454.97;;;0.76;73.20
10652;BME280;5374;42.742;23.266;2024-01-30T01:07:54;97466.25;;;0.76;72.73
10652;BME280;5374;42.742;23.266;2024-01-30T01:10:41;97465.97;;;0.69;72.24
10652;BME280;5374;42.742;23.266;2024-01-30T01:13:28;97458.41;;;0.57;72.29
10652;BME280;5374;42.742;23.266;2024-01-30T01:16:15;97466.41;;;0.55;72.52
10652;BME280;5374;42.742;23.266;2024-01-30T01:19:03;97453.72;;;0.51;72.97
10652;BME280;5374;42.742;23.266;2024-01-30T01:21:51;97456.63;;;0.57;72.97
10652;BME280;5374;42.742;23.266;2024-01-30T01:24:39;97453.88;;;0.49;72.85
10652;BME280;5374;42.742;23.266;2024-01-30T01:27:26;97445.63;;;0.44;73.09
10652;BME280;5374;42.742;23.266;2024-01-30T01:30:13;97454.69;;;0.50;72.89
10652;BME280;5374;42.742;23.266;2024-01-30T01:33:07;97452.09;;;0.40;73.42
10652;BME280;5374;42.742;23.266;2024-01-30T01:35:55;97460.34;;;0.45;73.43
10652;BME280;5374;42.742;23.266;2024-01-30T01:38:43;97458.53;;;0.46;73.82
10652;BME280;5374;42.742;23.266;2024-01-30T01:41:31;97446.88;;;0.40;73.88
10652;BME280;5374;42.742;23.266;2024-01-30T01:44:18;97458.72;;;0.44;74.50
10652;BME280;5374;42.742;23.266;2024-01-30T01:47:05;97441.91;;;0.37;73.93
10652;BME280;5374;42.742;23.266;2024-01-30T01:49:53;97450.56;;;0.47;74.06
10652;BME280;5374;42.742;23.266;2024-01-30T01:52:40;97457.31;;;0.40;74.48
10652;BME280;5374;42.742;23.266;2024-01-30T01:55:30;97462.16;;;0.45;74.32
10652;BME280;5374;42.742;23.266;2024-01-30T01:58:19;97459.09;;;0.49;74.04
10652;BME280;5374;42.742;23.266;2024-01-30T02:01:07;97455.13;;;0.45;74.48
10652;BME280;5374;42.742;23.266;2024-01-30T02:03:55;97455.13;;;0.45;74.42
10652;BME280;5374;42.742;23.266;2024-01-30T02:06:43;97466.25;;;0.57;74.34
10652;BME280;5374;42.742;23.266;2024-01-30T02:09:31;97462.13;;;0.54;74.71
10652;BME280;5374;42.742;23.266;2024-01-30T02:12:19;97453.19;;;0.47;75.05
10652;BME280;5374;42.742;23.266;2024-01-30T02:15:07;97465.44;;;0.56;74.70
10652;BME280;5374;42.742;23.266;2024-01-30T02:17:54;97460.47;;;0.53;75.23
10652;BME280;5374;42.742;23.266;2024-01-30T02:20:42;97470.50;;;0.48;74.69
10652;BME280;5374;42.742;23.266;2024-01-30T02:23:33;97465.00;;;0.32;75.58
10652;BME280;5374;42.742;23.266;2024-01-30T02:26:21;97464.19;;;0.41;75.28
10652;BME280;5374;42.742;23.266;2024-01-30T02:29:08;97463.91;;;0.34;75.35
10652;BME280;5374;42.742;23.266;2024-01-30T02:31:55;97462.66;;;0.48;74.75
10652;BME280;5374;42.742;23.266;2024-01-30T02:34:42;97451.81;;;0.43;75.09
10652;BME280;5374;42.742;23.266;2024-01-30T02:37:29;97459.50;;;0.54;74.53
10652;BME280;5374;42.742;23.266;2024-01-30T02:40:18;97459.50;;;0.54;74.19
10652;BME280;5374;42.742;23.266;2024-01-30T02:43:05;97462.13;;;0.54;73.90
10652;BME280;5374;42.742;23.266;2024-01-30T02:45:52;97459.13;;;0.59;73.27
10652;BME280;5374;42.742;23.266;2024-01-30T02:48:39;97470.25;;;0.61;71.79
10652;BME280;5374;42.742;23.266;2024-01-30T02:51:27;97459.50;;;0.54;72.21
10652;BME280;5374;42.742;23.266;2024-01-30T02:54:14;97461.03;;;0.57;72.18
10652;BME280;5374;42.742;23.266;2024-01-30T02:57:02;97461.31;;;0.63;72.71
10652;BME280;5374;42.742;23.266;2024-01-30T02:59:50;97464.91;;;0.62;71.26
10652;BME280;5374;42.742;23.266;2024-01-30T03:02:37;97459.50;;;0.54;71.49
10652;BME280;5374;42.742;23.266;2024-01-30T03:05:24;97461.97;;;0.46;71.32
10652;BME280;5374;42.742;23.266;2024-01-30T03:08:11;97455.66;;;0.39;71.40
10652;BME280;5374;42.742;23.266;2024-01-30T03:10:58;97454.00;;;0.28;71.56
10652;BME280;5374;42.742;23.266;2024-01-30T03:13:46;97463.09;;;0.34;71.63
10652;BME280;5374;42.742;23.266;2024-01-30T03:16:33;97452.63;;;0.34;71.87
10652;BME280;5374;42.742;23.266;2024-01-30T03:19:20;97457.28;;;0.30;71.32
10652;BME280;5374;42.742;23.266;2024-01-30T03:22:08;97447.94;;;0.18;71.68
10652;BME280;5374;42.742;23.266;2024-01-30T03:24:55;97449.31;;;0.32;71.50
10652;BME280;5374;42.742;23.266;2024-01-30T03:27:42;97453.16;;;0.28;71.17
10652;BME280;5374;42.742;23.266;2024-01-30T03:30:30;97448.78;;;0.28;71.08
10652;BME280;5374;42.742;23.266;2024-01-30T03:33:17;97452.06;;;0.21;71.59
10652;BME280;5374;42.742;23.266;2024-01-30T03:36:05;97447.69;;;0.21;71.43
10652;BME280;5374;42.742;23.266;2024-01-30T03:38:52;97442.28;;;0.23;71.11
10652;BME280;5374;42.742;23.266;2024-01-30T03:41:42;97440.50;;;0.23;70.90
10652;BME280;5374;42.742;23.266;2024-01-30T03:44:29;97436.41;;;0.21;70.17
10652;BME280;5374;42.742;23.266;2024-01-30T03:47:18;97446.84;;;0.21;70.00
10652;BME280;5374;42.742;23.266;2024-01-30T03:50:05;97448.34;;;0.23;69.60
10652;BME280;5374;42.742;23.266;2024-01-30T03:52:53;97451.25;;;0.20;69.46
10652;BME280;5374;42.742;23.266;2024-01-30T03:55:40;97432.81;;;0.12;69.21
10652;BME280;5374;42.742;23.266;2024-01-30T03:58:27;97440.81;;;0.20;69.34
10652;BME280;5374;42.742;23.266;2024-01-30T04:01:14;97427.19;;;0.17;69.10
10652;BME280;5374;42.742;23.266;2024-01-30T04:04:03;97402.41;;;0.02;69.16
10652;BME280;5374;42.742;23.266;2024-01-30T04:06:50;97432.28;;;0.18;69.00
10652;BME280;5374;42.742;23.266;2024-01-30T04:09:38;97419.19;;;0.09;68.84
10652;BME280;5374;42.742;23.266;2024-01-30T04:12:25;97433.50;;;0.14;69.20
10652;BME280;5374;42.742;23.266;2024-01-30T04:15:13;97430.88;;;0.14;68.75
10652;BME280;5374;42.742;23.266;2024-01-30T04:18:01;97422.75;;;0.08;67.95
10652;BME280;5374;42.742;23.266;2024-01-30T04:20:49;97430.47;;;0.09;67.62
10652;BME280;5374;42.742;23.266;2024-01-30T04:23:36;97428.94;;;0.07;67.58
10652;BME280;5374;42.742;23.266;2024-01-30T04:26:23;97435.38;;;0.03;67.41
10652;BME280;5374;42.742;23.266;2024-01-30T04:29:11;97431.13;;;0.02;67.70
10652;BME280;5374;42.742;23.266;2024-01-30T04:31:58;97436.09;;;-0.05;68.23
10652;BME280;5374;42.742;23.266;2024-01-30T04:34:45;97450.22;;;0.02;68.69
10652;BME280;5374;42.742;23.266;2024-01-30T04:37:33;97446.13;;;-0.01;68.80
10652;BME280;5374;42.742;23.266;2024-01-30T04:40:21;97448.56;;;0.01;68.85
10652;BME280;5374;42.742;23.266;2024-01-30T04:43:08;97446.41;;;-0.04;69.31
10652;BME280;5374;42.742;23.266;2024-01-30T04:45:55;97446.78;;;0.02;68.88
10652;BME280;5374;42.742;23.266;2024-01-30T04:48:42;97432.22;;;-0.11;69.60
10652;BME280;5374;42.742;23.266;2024-01-30T04:51:31;97462.47;;;0.02;69.58
10652;BME280;5374;42.742;23.266;2024-01-30T04:54:19;97440.31;;;-0.14;69.61
10652;BME280;5374;42.742;23.266;2024-01-30T04:57:06;97465.38;;;-0.02;69.84
10652;BME280;5374;42.742;23.266;2024-01-30T04:59:57;97450.34;;;-0.09;69.66
10652;BME280;5374;42.742;23.266;2024-01-30T05:02:44;97471.81;;;-0.06;69.78
10652;BME280;5374;42.742;23.266;2024-01-30T05:05:31;97469.91;;;-0.04;69.57
10652;BME280;5374;42.742;23.266;2024-01-30T05:08:19;97469.19;;;-0.06;69.74
10652;BME280;5374;42.742;23.266;2024-01-30T05:11:07;97473.72;;;-0.08;70.16
10652;BME280;5374;42.742;23.266;2024-01-30T05:13:55;97481.69;;;-0.09;70.56
10652;BME280;5374;42.742;23.266;2024-01-30T05:16:42;97470.50;;;-0.21;70.38
10652;BME280;5374;42.742;23.266;2024-01-30T05:19:32;97478.38;;;-0.11;70.56
10652;BME280;5374;42.742;23.266;2024-01-30T05:22:19;97483.47;;;-0.10;70.70
10652;BME280;5374;42.742;23.266;2024-01-30T05:25:07;97479.09;;;-0.09;70.13
10652;BME280;5374;42.742;23.266;2024-01-30T05:27:56;97453.88;;;-0.29;70.41
10652;BME280;5374;42.742;23.266;2024-01-30T05:30:43;97480.69;;;-0.18;70.83
10652;BME280;5374;42.742;23.266;2024-01-30T05:33:30;97481.50;;;-0.27;71.42
10652;BME280;5374;42.742;23.266;2024-01-30T05:36:17;97488.13;;;-0.23;71.49
10652;BME280;5374;42.742;23.266;2024-01-30T05:39:04;97480.81;;;-0.29;72.21
10652;BME280;5374;42.742;23.266;2024-01-30T05:41:51;97466.34;;;-0.33;72.21
10652;BME280;5374;42.742;23.266;2024-01-30T05:44:40;97472.72;;;-0.26;72.35
10652;BME280;5374;42.742;23.266;2024-01-30T05:47:27;97477.69;;;-0.23;72.87
10652;BME280;5374;42.742;23.266;2024-01-30T05:50:14;97476.44;;;-0.19;72.24
10652;BME280;5374;42.742;23.266;2024-01-30T05:53:01;97479.16;;;-0.20;72.48
10652;BME280;5374;42.742;23.266;2024-01-30T05:55:48;97476.69;;;-0.22;72.32
10652;BME280;5374;42.742;23.266;2024-01-30T05:58:35;97482.22;;;-0.15;71.98
10652;BME280;5374;42.742;23.266;2024-01-30T06:01:24;97478.78;;;-0.16;71.33
10652;BME280;5374;42.742;23.266;2024-01-30T06:04:11;97486.09;;;-0.10;71.35
10652;BME280;5374;42.742;23.266;2024-01-30T06:06:58;97487.59;;;-0.07;71.25
10652;BME280;5374;42.742;23.266;2024-01-30T06:09:47;97487.47;;;-0.06;71.77
10652;BME280;5374;42.742;23.266;2024-01-30T06:12:34;97489.25;;;-0.06;71.70
10652;BME280;5374;42.742;23.266;2024-01-30T06:15:21;97490.53;;;-0.01;71.72
10652;BME280;5374;42.742;23.266;2024-01-30T06:18:10;97489.69;;;0.09;70.47
10652;BME280;5374;42.742;23.266;2024-01-30T06:20:57;97491.06;;;0.03;70.15
10652;BME280;5374;42.742;23.266;2024-01-30T06:23:44;97485.47;;;0.17;70.66
10652;BME280;5374;42.742;23.266;2024-01-30T06:26:31;97486.69;;;0.23;69.21
10652;BME280;5374;42.742;23.266;2024-01-30T06:29:18;97491.41;;;0.29;69.23
10652;BME280;5374;42.742;23.266;2024-01-30T06:32:06;97477.91;;;0.24;69.29
10652;BME280;5374;42.742;23.266;2024-01-30T06:34:55;97485.78;;;0.43;68.29
10652;BME280;5374;42.742;23.266;2024-01-30T06:37:42;97485.50;;;0.46;67.70
10652;BME280;5374;42.742;23.266;2024-01-30T06:40:29;97480.72;;;0.42;68.01
10652;BME280;5374;42.742;23.266;2024-01-30T06:43:16;97479.63;;;0.63;67.95
10652;BME280;5374;42.742;23.266;2024-01-30T06:46:03;97484.00;;;0.73;67.16
10652;BME280;5374;42.742;23.266;2024-01-30T06:48:50;97492.09;;;1.27;65.40
10652;BME280;5374;42.742;23.266;2024-01-30T06:51:39;97491.97;;;2.03;62.20
10652;BME280;5374;42.742;23.266;2024-01-30T06:54:26;97450.91;;;2.74;59.23
10652;BME280;5374;42.742;23.266;2024-01-30T06:57:13;97470.44;;;4.09;55.78
10652;BME280;5374;42.742;23.266;2024-01-30T07:00:00;97467.31;;;5.21;53.57
10652;BME280;5374;42.742;23.266;2024-01-30T07:02:47;97449.47;;;7.48;48.08
10652;BME280;5374;42.742;23.266;2024-01-30T07:05:34;97443.16;;;9.16;42.69
10652;BME280;5374;42.742;23.266;2024-01-30T07:08:23;97485.91;;;10.66;38.63
10652;BME280;5374;42.742;23.266;2024-01-30T07:11:10;97492.66;;;9.86;39.22
10652;BME280;5374;42.742;23.266;2024-01-30T07:13:58;97498.22;;;8.42;40.50
10652;BME280;5374;42.742;23.266;2024-01-30T07:16:45;97500.38;;;7.27;43.31
10652;BME280;5374;42.742;23.266;2024-01-30T07:19:32;97506.56;;;6.43;44.31
10652;BME280;5374;42.742;23.266;2024-01-30T07:22:20;97488.03;;;5.65;45.07
10652;BME280;5374;42.742;23.266;2024-01-30T07:25:08;97510.44;;;5.20;46.35
10652;BME280;5374;42.742;23.266;2024-01-30T07:27:55;97508.38;;;4.57;48.02
10652;BME280;5374;42.742;23.266;2024-01-30T07:30:43;97504.78;;;4.50;48.30
10652;BME280;5374;42.742;23.266;2024-01-30T07:33:30;97508.38;;;4.49;49.08
10652;BME280;5374;42.742;23.266;2024-01-30T07:36:17;97502.06;;;4.26;49.35
10652;BME280;5374;42.742;23.266;2024-01-30T07:39:04;97499.91;;;4.21;50.69
10652;BME280;5374;42.742;23.266;2024-01-30T07:41:52;97497.78;;;4.25;50.16
10652;BME280;5374;42.742;23.266;2024-01-30T07:44:39;97468.50;;;4.20;49.61
10652;BME280;5374;42.742;23.266;2024-01-30T07:47:27;97506.31;;;4.19;49.67
10652;BME280;5374;42.742;23.266;2024-01-30T07:50:14;97509.41;;;4.14;50.05
10652;BME280;5374;42.742;23.266;2024-01-30T07:53:02;97478.34;;;3.75;49.62
10652;BME280;5374;42.742;23.266;2024-01-30T07:55:49;97498.59;;;3.83;51.10
10652;BME280;5374;42.742;23.266;2024-01-30T07:58:38;97486.91;;;3.77;50.83
10652;BME280;5374;42.742;23.266;2024-01-30T08:01:25;97499.22;;;3.77;51.30
10652;BME280;5374;42.742;23.266;2024-01-30T08:04:13;97490.81;;;3.73;51.25
10652;BME280;5374;42.742;23.266;2024-01-30T08:07:00;97501.69;;;3.78;51.45
10652;BME280;5374;42.742;23.266;2024-01-30T08:09:47;97484.44;;;3.84;50.63
10652;BME280;5374;42.742;23.266;2024-01-30T08:12:35;97497.78;;;3.83;50.44
10652;BME280;5374;42.742;23.266;2024-01-30T08:15:23;97488.66;;;3.69;50.99
10652;BME280;5374;42.742;23.266;2024-01-30T08:18:11;97499.69;;;3.72;51.66
10652;BME280;5374;42.742;23.266;2024-01-30T08:20:58;97482.66;;;3.85;51.95
10652;BME280;5374;42.742;23.266;2024-01-30T08:23:45;97498.72;;;4.16;52.24
10652;BME280;5374;42.742;23.266;2024-01-30T08:26:32;97508.56;;;4.13;50.46
10652;BME280;5374;42.742;23.266;2024-01-30T08:29:20;97505.16;;;4.21;50.37
10652;BME280;5374;42.742;23.266;2024-01-30T08:32:09;97506.94;;;4.12;50.81
10652;BME280;5374;42.742;23.266;2024-01-30T08:34:56;97506.09;;;4.12;50.44
10652;BME280;5374;42.742;23.266;2024-01-30T08:37:43;97512.19;;;4.12;50.78
10652;BME280;5374;42.742;23.266;2024-01-30T08:40:30;97507.38;;;4.00;51.40
10652;BME280;5374;42.742;23.266;2024-01-30T08:43:17;97493.38;;;3.65;52.07
10652;BME280;5374;42.742;23.266;2024-01-30T08:46:04;97512.72;;;3.56;52.36
10652;BME280;5374;42.742;23.266;2024-01-30T08:48:53;97516.03;;;3.40;53.23
10652;BME280;5374;42.742;23.266;2024-01-30T08:51:40;97493.50;;;3.56;53.28
10652;BME280;5374;42.742;23.266;2024-01-30T08:54:27;97507.00;;;3.61;53.01
10652;BME280;5374;42.742;23.266;2024-01-30T08:57:16;97510.84;;;3.49;53.10
10652;BME280;5374;42.742;23.266;2024-01-30T09:00:05;97513.19;;;3.52;53.68
10652;BME280;5374;42.742;23.266;2024-01-30T09:02:54;97517.69;;;3.41;53.76
10652;BME280;5374;42.742;23.266;2024-01-30T09:05:43;97522.13;;;3.41;53.63
10652;BME280;5374;42.742;23.266;2024-01-30T09:08:30;97520.94;;;3.35;52.99
10652;BME280;5374;42.742;23.266;2024-01-30T09:11:18;97513.91;;;3.18;54.07
10652;BME280;5374;42.742;23.266;2024-01-30T09:14:05;97524.88;;;3.14;54.33
10652;BME280;5374;42.742;23.266;2024-01-30T09:16:52;97521.78;;;3.18;54.64
10652;BME280;5374;42.742;23.266;2024-01-30T09:19:40;97519.84;;;3.20;53.72
10652;BME280;5374;42.742;23.266;2024-01-30T09:22:28;97510.31;;;3.19;54.08
10652;BME280;5374;42.742;23.266;2024-01-30T09:25:15;97514.03;;;2.91;54.11
10652;BME280;5374;42.742;23.266;2024-01-30T09:28:05;97514.75;;;3.01;54.92
10652;BME280;5374;42.742;23.266;2024-01-30T09:30:52;97516.03;;;2.97;55.00
10652;BME280;5374;42.742;23.266;2024-01-30T09:33:39;97514.75;;;3.01;54.62
10652;BME280;5374;42.742;23.266;2024-01-30T09:36:26;97500.22;;;3.06;54.23
10652;BME280;5374;42.742;23.266;2024-01-30T09:39:15;97512.50;;;3.06;54.07
10652;BME280;5374;42.742;23.266;2024-01-30T09:42:17;97500.81;;;3.00;53.42
10652;BME280;5374;42.742;23.266;2024-01-30T09:45:05;97506.03;;;3.18;54.30
10652;BME280;5374;42.742;23.266;2024-01-30T09:47:53;97489.25;;;3.63;52.89
10652;BME280;5374;42.742;23.266;2024-01-30T09:50:40;97493.81;;;3.78;52.19
10652;BME280;5374;42.742;23.266;2024-01-30T09:53:27;97494.84;;;3.60;51.34
10652;BME280;5374;42.742;23.266;2024-01-30T09:56:16;97489.03;;;3.48;51.64
10652;BME280;5374;42.742;23.266;2024-01-30T09:59:03;97495.56;;;3.44;52.21
10652;BME280;5374;42.742;23.266;2024-01-30T10:01:51;97475.59;;;3.51;51.57
10652;BME280;5374;42.742;23.266;2024-01-30T10:04:38;97488.09;;;3.57;51.30
10652;BME280;5374;42.742;23.266;2024-01-30T10:07:25;97471.22;;;3.60;51.06
10652;BME280;5374;42.742;23.266;2024-01-30T10:10:12;97465.88;;;3.77;50.30
10652;BME280;5374;42.742;23.266;2024-01-30T10:13:00;97475.63;;;3.93;50.78
10652;BME280;5374;42.742;23.266;2024-01-30T10:15:48;97461.75;;;4.17;50.77
10652;BME280;5374;42.742;23.266;2024-01-30T10:18:36;97466.75;;;4.36;49.36
10652;BME280;5374;42.742;23.266;2024-01-30T10:21:23;97467.88;;;4.34;49.32
10652;BME280;5374;42.742;23.266;2024-01-30T10:24:10;97470.78;;;4.06;49.31
10652;BME280;5374;42.742;23.266;2024-01-30T10:26:58;97485.84;;;3.96;49.72
10652;BME280;5374;42.742;23.266;2024-01-30T10:29:49;97479.00;;;3.77;50.04
10652;BME280;5374;42.742;23.266;2024-01-30T10:32:37;97474.59;;;3.86;50.92
10652;BME280;5374;42.742;23.266;2024-01-30T10:35:24;97479.72;;;3.88;50.86
10652;BME280;5374;42.742;23.266;2024-01-30T10:38:13;97466.09;;;3.92;50.16
10652;BME280;5374;42.742;23.266;2024-01-30T10:41:02;97460.78;;;3.84;49.74
10652;BME280;5374;42.742;23.266;2024-01-30T10:43:57;97458.44;;;4.07;49.55
10652;BME280;5374;42.742;23.266;2024-01-30T10:46:56;97462.22;;;4.12;49.32
10652;BME280;5374;42.742;23.266;2024-01-30T10:49:47;97472.16;;;4.27;49.54
10652;BME280;5374;42.742;23.266;2024-01-30T10:52:34;97460.66;;;4.36;49.58
10652;BME280;5374;42.742;23.266;2024-01-30T10:55:22;97433.19;;;4.30;49.07
10652;BME280;5374;42.742;23.266;2024-01-30T10:58:09;97447.88;;;4.49;48.62
10652;BME280;5374;42.742;23.266;2024-01-30T11:00:58;97421.56;;;4.41;49.26
10652;BME280;5374;42.742;23.266;2024-01-30T11:03:47;97420.22;;;4.29;49.50
10652;BME280;5374;42.742;23.266;2024-01-30T11:06:41;97430.41;;;4.32;49.73
10652;BME280;5374;42.742;23.266;2024-01-30T11:09:29;97434.56;;;4.59;49.51
10652;BME280;5374;42.742;23.266;2024-01-30T11:12:16;97426.88;;;4.73;49.26
10652;BME280;5374;42.742;23.266;2024-01-30T11:15:09;97439.66;;;4.76;49.48
10652;BME280;5374;42.742;23.266;2024-01-30T11:17:56;97421.59;;;4.73;49.13
10652;BME280;5374;42.742;23.266;2024-01-30T11:20:46;97425.69;;;4.76;49.85
10652;BME280;5374;42.742;23.266;2024-01-30T11:23:34;97411.38;;;4.87;50.26
10652;BME280;5374;42.742;23.266;2024-01-30T11:26:27;97413.84;;;4.88;49.11
10652;BME280;5374;42.742;23.266;2024-01-30T11:29:14;97411.03;;;4.98;50.11
10652;BME280;5374;42.742;23.266;2024-01-30T11:32:02;97411.69;;;5.00;48.92
10652;BME280;5374;42.742;23.266;2024-01-30T11:34:49;97402.19;;;4.91;49.25
10652;BME280;5374;42.742;23.266;2024-01-30T11:37:38;97412.69;;;4.99;49.44
10652;BME280;5374;42.742;23.266;2024-01-30T11:40:27;97415.81;;;5.02;48.86
10652;BME280;5374;42.742;23.266;2024-01-30T11:43:15;97379.47;;;4.65;49.44
10652;BME280;5374;42.742;23.266;2024-01-30T11:46:06;97400.53;;;4.73;49.34
10652;BME280;5374;42.742;23.266;2024-01-30T11:48:53;97385.09;;;4.70;49.75
10652;BME280;5374;42.742;23.266;2024-01-30T11:51:41;97404.63;;;5.00;49.37
10652;BME280;5374;42.742;23.266;2024-01-30T11:54:30;97406.13;;;4.95;49.14
10652;BME280;5374;42.742;23.266;2024-01-30T11:57:17;97403.00;;;4.91;48.66
10652;BME280;5374;42.742;23.266;2024-01-30T12:00:13;97394.59;;;4.88;48.86
10652;BME280;5374;42.742;23.266;2024-01-30T12:03:01;97390.00;;;4.90;49.20
10652;BME280;5374;42.742;23.266;2024-01-30T12:05:55;97399.06;;;4.87;49.93
10652;BME280;5374;42.742;23.266;2024-01-30T12:08:42;97380.13;;;4.75;49.70
10652;BME280;5374;42.742;23.266;2024-01-30T12:11:31;97364.66;;;4.80;49.51
10652;BME280;5374;42.742;23.266;2024-01-30T12:14:19;97332.78;;;4.51;49.86
10652;BME280;5374;42.742;23.266;2024-01-30T12:17:08;97367.47;;;4.79;50.15
10652;BME280;5374;42.742;23.266;2024-01-30T12:20:03;97360.72;;;4.85;49.02
10652;BME280;5374;42.742;23.266;2024-01-30T12:22:50;97364.03;;;4.70;49.37
10652;BME280;5374;42.742;23.266;2024-01-30T12:25:37;97365.00;;;4.77;49.24
10652;BME280;5374;42.742;23.266;2024-01-30T12:28:26;97362.06;;;4.48;50.01
10652;BME280;5374;42.742;23.266;2024-01-30T12:31:13;97366.63;;;4.22;50.97
10652;BME280;5374;42.742;23.266;2024-01-30T12:34:00;97362.06;;;4.48;50.34
10652;BME280;5374;42.742;23.266;2024-01-30T12:36:48;97360.41;;;4.47;50.45
10652;BME280;5374;42.742;23.266;2024-01-30T12:39:35;97350.69;;;4.64;50.48
10652;BME280;5374;42.742;23.266;2024-01-30T12:42:23;97347.25;;;4.63;49.71
10652;BME280;5374;42.742;23.266;2024-01-30T12:45:11;97359.09;;;4.67;49.58
10652;BME280;5374;42.742;23.266;2024-01-30T12:48:00;97336.38;;;4.58;49.83
10652;BME280;5374;42.742;23.266;2024-01-30T12:50:48;97352.50;;;4.79;49.12
10652;BME280;5374;42.742;23.266;2024-01-30T12:53:35;97346.28;;;4.72;49.33
10652;BME280;5374;42.742;23.266;2024-01-30T12:56:22;97339.19;;;4.65;49.86
10652;BME280;5374;42.742;23.266;2024-01-30T12:59:09;97313.72;;;4.41;50.41
10652;BME280;5374;42.742;23.266;2024-01-30T13:01:59;97339.34;;;4.71;49.91
10652;BME280;5374;42.742;23.266;2024-01-30T13:04:47;97329.66;;;4.72;49.79
10652;BME280;5374;42.742;23.266;2024-01-30T13:07:34;97332.94;;;4.58;50.04
10652;BME280;5374;42.742;23.266;2024-01-30T13:10:21;97294.31;;;4.50;49.98
10652;BME280;5374;42.742;23.266;2024-01-30T13:13:08;97327.19;;;4.70;49.14
10652;BME280;5374;42.742;23.266;2024-01-30T13:15:56;97325.88;;;4.50;49.30
10652;BME280;5374;42.742;23.266;2024-01-30T13:18:44;97329.47;;;4.57;50.03
10652;BME280;5374;42.742;23.266;2024-01-30T13:21:32;97322.09;;;4.61;50.13
10652;BME280;5374;42.742;23.266;2024-01-30T13:24:19;97324.22;;;4.41;50.47
10652;BME280;5374;42.742;23.266;2024-01-30T13:27:07;97322.91;;;4.21;51.43
10652;BME280;5374;42.742;23.266;2024-01-30T13:29:54;97319.81;;;4.25;51.26
10652;BME280;5374;42.742;23.266;2024-01-30T13:32:41;97319.97;;;4.24;51.55
10652;BME280;5374;42.742;23.266;2024-01-30T13:35:31;97323.25;;;4.26;51.29
10652;BME280;5374;42.742;23.266;2024-01-30T13:38:18;97314.03;;;4.22;51.03
10652;BME280;5374;42.742;23.266;2024-01-30T13:41:05;97311.41;;;4.13;51.30
10652;BME280;5374;42.742;23.266;2024-01-30T13:43:52;97312.41;;;4.21;51.75
10652;BME280;5374;42.742;23.266;2024-01-30T13:46:39;97314.53;;;4.17;52.18
10652;BME280;5374;42.742;23.266;2024-01-30T13:49:27;97319.31;;;4.22;52.40
10652;BME280;5374;42.742;23.266;2024-01-30T13:52:16;97312.38;;;4.12;52.11
10652;BME280;5374;42.742;23.266;2024-01-30T13:55:03;97312.06;;;4.24;52.20
10652;BME280;5374;42.742;23.266;2024-01-30T13:57:51;97321.25;;;4.11;52.37
10652;BME280;5374;42.742;23.266;2024-01-30T14:00:38;97321.22;;;3.95;53.40
10652;BME280;5374;42.742;23.266;2024-01-30T14:03:25;97320.88;;;3.82;53.19
10652;BME280;5374;42.742;23.266;2024-01-30T14:06:12;97326.41;;;3.63;54.08
10652;BME280;5374;42.742;23.266;2024-01-30T14:09:00;97319.69;;;3.68;54.00
10652;BME280;5374;42.742;23.266;2024-01-30T14:11:49;97322.44;;;3.51;54.55
10652;BME280;5374;42.742;23.266;2024-01-30T14:14:36;97326.19;;;3.48;55.27
10652;BME280;5374;42.742;23.266;2024-01-30T14:17:23;97327.72;;;3.59;54.98
10652;BME280;5374;42.742;23.266;2024-01-30T14:20:10;97327.88;;;3.57;54.39
10652;BME280;5374;42.742;23.266;2024-01-30T14:22:58;97312.56;;;3.44;54.41
10652;BME280;5374;42.742;23.266;2024-01-30T14:25:46;97314.50;;;3.42;55.35
10652;BME280;5374;42.742;23.266;2024-01-30T14:28:34;97315.19;;;3.44;56.00
10652;BME280;5374;42.742;23.266;2024-01-30T14:31:21;97302.03;;;3.36;55.38
10652;BME280;5374;42.742;23.266;2024-01-30T14:34:10;97322.38;;;3.42;55.34
10652;BME280;5374;42.742;23.266;2024-01-30T14:36:58;97331.91;;;3.35;55.43
10652;BME280;5374;42.742;23.266;2024-01-30T14:39:46;97319.19;;;3.23;55.64
10652;BME280;5374;42.742;23.266;2024-01-30T14:42:35;97318.19;;;3.16;56.31
10652;BME280;5374;42.742;23.266;2024-01-30T14:45:23;97317.19;;;3.17;56.30
10652;BME280;5374;42.742;23.266;2024-01-30T14:48:10;97299.53;;;2.93;56.89
10652;BME280;5374;42.742;23.266;2024-01-30T14:50:57;97314.69;;;3.07;57.19
10652;BME280;5374;42.742;23.266;2024-01-30T14:53:44;97322.94;;;3.12;56.55
10652;BME280;5374;42.742;23.266;2024-01-30T14:56:31;97314.47;;;2.92;56.82
10652;BME280;5374;42.742;23.266;2024-01-30T14:59:20;97319.88;;;2.99;56.61